K88

Allen County Airport

Iola, Kansas, USA
METAR KK88 241915Z AUTO 20003KT 10SM 23/18 A2991 RMK AO1 T02300177
Observed Flight Rules
Sep-24 @ 19:15 UTC (17 minutes ago)
Wind Visibility
200° at 3 knots 10 miles
Temperatures Readings
Current 23°C / 73°F
Dewpoint 18°C / 64°F
Humidity 74%
Altimeter 29.91" Hg
Pressure 1013 hPa
Elevation 309
METAR KK88 241915Z AUTO 20003KT 10SM 23/18 A2991 RMK AO1 T02300177
Observed Flight Rules
Sep-24 @ 19:15 UTC
(17 minutes ago)
Wind Visibility
200° at 3 knots 10 miles
Temperature Dewpoint
23°C / 73°F 18°C / 64°F
Humidity Altimeter Pressure
74% 29.91" Hg 1013 hPa